createdAt,value
2018-10-01T18:41:25.667Z,25
2018-10-01T18:41:38.235Z,25
2018-10-01T18:41:51.441Z,25
2018-10-01T18:42:04.532Z,25
2018-10-01T18:42:18.020Z,30
2018-10-01T18:42:31.656Z,30
2018-10-01T18:42:44.250Z,30
2018-10-01T18:42:56.321Z,35
2018-10-01T18:43:08.785Z,35
2018-10-01T18:43:21.024Z,35
2018-10-01T18:43:34.407Z,40
2018-10-01T18:43:48.358Z,40
2018-10-01T18:44:00.701Z,40
2018-10-01T18:44:12.325Z,40
2018-10-01T18:44:25.429Z,45
2018-10-01T18:44:38.613Z,45
2018-10-01T18:44:50.514Z,45
2018-10-01T18:45:03.006Z,45
2018-10-01T18:45:15.848Z,45
2018-10-01T18:45:29.206Z,50
2018-10-01T18:45:41.556Z,50
2018-10-01T18:45:54.052Z,50
2018-10-01T18:46:07.176Z,50
2018-10-01T18:46:19.371Z,55
2018-10-01T18:46:31.546Z,55
2018-10-01T18:46:43.616Z,55
2018-10-01T18:46:56.551Z,55
2018-10-01T18:47:12.020Z,55
2018-10-01T18:47:25.571Z,55
2018-10-01T18:47:38.838Z,55
2018-10-01T18:47:51.414Z,55
2018-10-01T18:48:05.345Z,55
2018-10-01T18:48:18.700Z,55
2018-10-01T18:48:31.633Z,55
2018-10-01T18:48:44.215Z,60
2018-10-01T18:48:56.849Z,60
2018-10-01T18:49:09.542Z,60
2018-10-01T18:49:21.822Z,60
2018-10-01T18:49:34.609Z,60
2018-10-01T18:49:47.836Z,60
2018-10-01T18:50:01.002Z,60
2018-10-01T18:50:13.705Z,65
2018-10-01T18:50:26.971Z,65
2018-10-01T18:50:40.185Z,70
2018-10-01T18:50:53.313Z,70
2018-10-01T18:51:06.278Z,75
2018-10-01T18:51:19.581Z,75
2018-10-01T18:51:32.186Z,75
2018-10-01T18:51:45.278Z,80
2018-10-01T18:51:57.415Z,80
2018-10-01T18:52:10.588Z,80
2018-10-01T18:52:23.205Z,80
2018-10-01T18:52:35.774Z,85
2018-10-01T18:52:48.376Z,85
2018-10-01T18:53:01.388Z,85
2018-10-01T18:53:13.910Z,85
2018-10-01T18:53:25.971Z,85
2018-10-01T18:53:38.952Z,90
2018-10-01T18:53:51.637Z,90
2018-10-01T18:54:04.541Z,90
2018-10-01T18:54:17.985Z,90
2018-10-01T18:54:30.637Z,95
2018-10-01T18:54:43.156Z,95
2018-10-01T18:54:55.698Z,95
2018-10-01T18:55:08.220Z,95
2018-10-01T18:55:20.689Z,95
2018-10-01T18:55:33.229Z,95
2018-10-01T18:55:45.818Z,95
2018-10-01T18:55:58.432Z,95
2018-10-01T18:56:10.116Z,95
2018-10-01T18:56:23.213Z,95
2018-10-01T18:56:36.264Z,95
2018-10-01T18:56:48.731Z,95
2018-10-01T18:57:00.785Z,90
2018-10-01T18:57:12.822Z,90
2018-10-01T18:57:25.474Z,90
2018-10-01T18:57:38.933Z,85
2018-10-01T18:57:50.557Z,85
2018-10-01T18:58:03.085Z,85
2018-10-01T18:58:15.534Z,80
2018-10-01T18:58:28.087Z,80
2018-10-01T18:58:40.573Z,80
2018-10-01T18:58:53.594Z,80
2018-10-01T18:59:06.136Z,75
2018-10-01T18:59:19.070Z,75
2018-10-01T18:59:31.580Z,75
2018-10-01T18:59:44.644Z,75
2018-10-01T18:59:57.432Z,75
2018-10-01T19:00:10.867Z,70
2018-10-01T19:00:23.821Z,70
2018-10-01T19:00:36.597Z,70
2018-10-01T19:00:49.133Z,70
2018-10-01T19:01:01.711Z,70
2018-10-01T19:01:14.368Z,70
2018-10-01T19:01:27.356Z,70
2018-10-01T19:01:40.355Z,65
2018-10-01T19:01:53.579Z,65
2018-10-01T19:02:05.731Z,65
2018-10-01T19:02:18.697Z,65
2018-10-01T19:02:31.670Z,60
2018-10-01T19:02:44.677Z,60
2018-10-01T19:02:57.676Z,60
2018-10-01T19:03:10.722Z,55
2018-10-01T19:03:23.342Z,55
2018-10-01T19:03:35.491Z,55
2018-10-01T19:03:48.302Z,55
2018-10-01T19:04:01.371Z,55
2018-10-01T19:04:13.511Z,50
2018-10-01T19:04:25.548Z,50
2018-10-01T19:04:37.624Z,50
2018-10-01T19:04:50.095Z,50
2018-10-01T19:05:02.600Z,50
2018-10-01T19:05:14.680Z,50
2018-10-01T19:05:27.196Z,50
2018-10-01T19:05:39.805Z,55
2018-10-01T19:05:52.498Z,55
2018-10-01T19:06:05.540Z,55
2018-10-01T19:06:18.976Z,60
2018-10-01T19:06:31.673Z,60
2018-10-01T19:06:44.252Z,60
2018-10-01T19:06:57.227Z,60
2018-10-01T19:07:09.297Z,60
2018-10-01T19:07:22.244Z,65
2018-10-01T19:07:34.766Z,65
2018-10-01T19:07:47.305Z,65
2018-10-01T19:07:59.763Z,70
2018-10-01T19:08:12.859Z,75
2018-10-01T19:08:25.459Z,80
2018-10-01T19:08:38.042Z,85
2018-10-01T19:08:50.985Z,85
2018-10-01T19:09:03.463Z,90
2018-10-01T19:09:16.491Z,95
2018-10-01T19:09:29.454Z,100
2018-10-01T19:09:41.964Z,105
2018-10-01T19:09:54.901Z,110
2018-10-01T19:10:07.453Z,110
2018-10-01T19:10:20.061Z,110
2018-10-01T19:10:33.641Z,115
2018-10-01T19:10:44.668Z,120
2018-10-01T19:10:56.754Z,125
2018-10-01T19:11:09.731Z,130
2018-10-01T19:11:23.010Z,135
2018-10-01T19:11:35.638Z,140
2018-10-01T19:11:48.297Z,140
2018-10-01T19:12:01.197Z,145
2018-10-01T19:12:12.928Z,150
2018-10-01T19:12:25.356Z,155
2018-10-01T19:12:37.468Z,160
2018-10-01T19:12:50.043Z,160
2018-10-01T19:13:03.051Z,165
2018-10-01T19:13:15.508Z,170
2018-10-01T19:13:28.515Z,170
2018-10-01T19:13:40.078Z,175
2018-10-01T19:13:53.030Z,180
2018-10-01T19:14:05.553Z,180
2018-10-01T19:14:18.461Z,185
2018-10-01T19:14:30.568Z,185
2018-10-01T19:14:43.162Z,190
2018-10-01T19:14:56.664Z,190
2018-10-01T19:15:09.616Z,190
2018-10-01T19:15:22.485Z,195
2018-10-01T19:15:35.416Z,195
2018-10-01T19:15:47.483Z,200
2018-10-01T19:15:59.992Z,200
2018-10-01T19:16:12.519Z,205
2018-10-01T19:16:25.498Z,205
2018-10-01T19:16:37.075Z,210
2018-10-01T19:16:49.201Z,215
2018-10-01T19:17:02.223Z,215
2018-10-01T19:17:14.959Z,215
2018-10-01T19:17:27.050Z,220
2018-10-01T19:17:38.624Z,220
2018-10-01T19:17:51.365Z,225
2018-10-01T19:18:03.652Z,225
2018-10-01T19:18:16.525Z,230
2018-10-01T19:18:29.246Z,230
2018-10-01T19:18:42.220Z,230
2018-10-01T19:18:53.837Z,235
2018-10-01T19:19:06.845Z,235
2018-10-01T19:19:19.412Z,240
2018-10-01T19:19:31.880Z,240
2018-10-01T19:19:44.888Z,240
2018-10-01T19:19:57.459Z,245
2018-10-01T19:20:10.010Z,245
2018-10-01T19:20:22.498Z,250
2018-10-01T19:20:34.591Z,250
2018-10-01T19:20:47.169Z,250
2018-10-01T19:20:59.728Z,250
2018-10-01T19:21:13.107Z,250
2018-10-01T19:21:26.848Z,250
2018-10-01T19:21:39.468Z,250
2018-10-01T19:21:51.569Z,250
2018-10-01T19:22:04.107Z,250
2018-10-01T19:22:17.149Z,255
2018-10-01T19:22:29.653Z,255
2018-10-01T19:22:42.178Z,255
2018-10-01T19:22:55.143Z,260
2018-10-01T19:23:08.173Z,265
2018-10-01T19:23:20.756Z,260
2018-10-01T19:23:32.885Z,260
2018-10-01T19:23:45.065Z,260
2018-10-01T19:23:58.747Z,265
2018-10-01T19:24:11.734Z,260
2018-10-01T19:24:24.680Z,260
2018-10-01T19:24:36.359Z,260
2018-10-01T19:24:49.332Z,260
2018-10-01T19:25:02.392Z,265
2018-10-01T19:25:14.505Z,265
2018-10-01T19:25:27.048Z,270
2018-10-01T19:25:39.133Z,280
2018-10-01T19:25:52.206Z,295
2018-10-01T19:26:05.161Z,315
2018-10-01T19:26:18.399Z,315
2018-10-01T19:26:31.127Z,320
2018-10-01T19:26:43.721Z,320
2018-10-01T19:26:56.583Z,320
2018-10-01T19:27:10.108Z,325
2018-10-01T19:27:23.595Z,325
2018-10-01T19:27:36.202Z,330
2018-10-01T19:27:49.277Z,325
2018-10-01T19:28:02.321Z,325
2018-10-01T19:28:14.824Z,325
2018-10-01T19:28:27.409Z,325
2018-10-01T19:28:40.407Z,325
2018-10-01T19:28:53.379Z,330
2018-10-01T19:29:05.937Z,325
2018-10-01T19:29:18.479Z,315
2018-10-01T19:29:31.039Z,300
2018-10-01T19:29:43.674Z,295
2018-10-01T19:29:57.003Z,295
2018-10-01T19:30:10.141Z,305
2018-10-01T19:30:23.629Z,305
2018-10-01T19:30:35.931Z,305
2018-10-01T19:30:48.444Z,290
2018-10-01T19:31:00.496Z,280
2018-10-01T19:31:13.024Z,285
2018-10-01T19:31:26.235Z,270
2018-10-01T19:31:38.079Z,260
2018-10-01T19:31:51.427Z,255
2018-10-01T19:32:04.476Z,260
2018-10-01T19:32:17.491Z,255
2018-10-01T19:32:30.490Z,250
2018-10-01T19:32:43.524Z,250
2018-10-01T19:32:56.476Z,255
2018-10-01T19:33:09.126Z,250
2018-10-01T19:33:22.468Z,250
2018-10-01T19:33:35.926Z,250
2018-10-01T19:33:49.027Z,245
2018-10-01T19:34:02.028Z,245
2018-10-01T19:34:14.048Z,245
2018-10-01T19:34:26.544Z,250
2018-10-01T19:34:38.729Z,245
2018-10-01T19:34:52.159Z,245
2018-10-01T19:35:04.672Z,235
2018-10-01T19:35:17.660Z,235
2018-10-01T19:35:30.230Z,230
2018-10-01T19:35:43.677Z,230
2018-10-01T19:35:57.213Z,230
2018-10-01T19:36:10.928Z,230
2018-10-01T19:36:24.356Z,230
2018-10-01T19:36:36.945Z,225
2018-10-01T19:36:49.481Z,225
2018-10-01T19:37:02.025Z,225
2018-10-01T19:37:14.298Z,225
2018-10-01T19:37:27.816Z,220
2018-10-01T19:37:40.044Z,220
2018-10-01T19:37:52.978Z,220
2018-10-01T19:38:05.522Z,220
2018-10-01T19:38:18.577Z,220
2018-10-01T19:38:31.617Z,220
2018-10-01T19:38:44.666Z,220
2018-10-01T19:38:56.907Z,220
2018-10-01T19:39:09.958Z,220
2018-10-01T19:39:23.402Z,220
2018-10-01T19:39:36.171Z,220
2018-10-01T19:39:48.227Z,225
2018-10-01T19:40:01.217Z,230
2018-10-01T19:40:13.756Z,230
2018-10-01T19:40:26.303Z,230
2018-10-01T19:40:39.326Z,235
2018-10-01T19:40:52.322Z,240
2018-10-01T19:41:04.877Z,240
2018-10-01T19:41:18.276Z,240
2018-10-01T19:41:30.857Z,245
2018-10-01T19:41:44.313Z,235
2018-10-01T19:41:56.404Z,235
2018-10-01T19:42:09.030Z,250
2018-10-01T19:42:21.618Z,250
2018-10-01T19:42:34.113Z,250
2018-10-01T19:42:46.608Z,240
2018-10-01T19:42:59.651Z,230
2018-10-01T19:43:12.702Z,225
2018-10-01T19:43:25.963Z,225
2018-10-01T19:43:39.393Z,230
2018-10-01T19:43:52.312Z,225
2018-10-01T19:44:04.854Z,225
2018-10-01T19:44:17.374Z,230
2018-10-01T19:44:29.897Z,240
2018-10-01T19:44:42.917Z,240
2018-10-01T19:44:55.773Z,240
2018-10-01T19:45:08.572Z,245
2018-10-01T19:45:21.325Z,245
2018-10-01T19:45:34.571Z,250
2018-10-01T19:45:47.104Z,250
2018-10-01T19:46:00.091Z,250
2018-10-01T19:46:12.618Z,250
2018-10-01T19:46:25.701Z,250
2018-10-01T19:46:38.686Z,250
2018-10-01T19:46:51.342Z,250
2018-10-01T19:47:03.796Z,240
2018-10-01T19:47:17.064Z,230
2018-10-01T19:47:29.864Z,225
2018-10-01T19:47:41.942Z,225
2018-10-01T19:47:53.572Z,220
2018-10-01T19:48:06.109Z,215
2018-10-01T19:48:18.701Z,210
2018-10-01T19:48:31.670Z,210
2018-10-01T19:48:44.220Z,205
2018-10-01T19:48:57.212Z,205
2018-10-01T19:49:09.800Z,200
2018-10-01T19:49:22.352Z,195
2018-10-01T19:49:34.900Z,195
2018-10-01T19:49:46.984Z,205
2018-10-01T19:50:00.017Z,210
2018-10-01T19:50:12.081Z,225
2018-10-01T19:50:25.153Z,225
2018-10-01T19:50:38.159Z,225
2018-10-01T19:50:50.735Z,230
2018-10-01T19:51:04.359Z,230
2018-10-01T19:51:17.668Z,230
2018-10-01T19:51:31.178Z,230
2018-10-01T19:51:44.594Z,220
2018-10-01T19:51:57.104Z,215
2018-10-01T19:52:09.671Z,215
2018-10-01T19:52:22.656Z,215
2018-10-01T19:52:35.189Z,215
2018-10-01T19:52:47.876Z,215
2018-10-01T19:53:00.145Z,210
2018-10-01T19:53:12.391Z,200
2018-10-01T19:53:25.360Z,195
2018-10-01T19:53:37.962Z,190
2018-10-01T19:53:50.696Z,190
2018-10-01T19:54:04.106Z,190
2018-10-01T19:54:16.748Z,190
2018-10-01T19:54:29.738Z,185
2018-10-01T19:54:42.808Z,185
2018-10-01T19:54:55.881Z,180
2018-10-01T19:55:07.501Z,180
2018-10-01T19:55:19.600Z,175
2018-10-01T19:55:32.130Z,175
2018-10-01T19:55:44.679Z,175
2018-10-01T19:55:57.663Z,175
2018-10-01T19:56:10.704Z,175
2018-10-01T19:56:22.820Z,175
2018-10-01T19:56:35.813Z,175
2018-10-01T19:56:49.018Z,175
2018-10-01T19:57:02.653Z,175
2018-10-01T19:57:14.847Z,175
2018-10-01T19:57:28.580Z,170
2018-10-01T19:57:41.608Z,170
2018-10-01T19:57:54.055Z,170
2018-10-01T19:58:07.201Z,170
2018-10-01T19:58:20.306Z,170
2018-10-01T19:58:32.855Z,170
2018-10-01T19:58:45.970Z,170
2018-10-01T19:58:58.868Z,170
2018-10-01T19:59:12.480Z,170
2018-10-01T19:59:26.208Z,170
2018-10-01T19:59:39.496Z,170
2018-10-01T19:59:52.479Z,170
2018-10-01T20:00:04.599Z,175
2018-10-01T20:00:16.991Z,175
2018-10-01T20:00:29.789Z,175
2018-10-01T20:00:42.128Z,175
2018-10-01T20:00:55.070Z,170
2018-10-01T20:01:07.287Z,170
2018-10-01T20:01:20.293Z,170
2018-10-01T20:01:32.452Z,170
2018-10-01T20:01:45.065Z,170
2018-10-01T20:01:58.182Z,170
2018-10-01T20:02:10.975Z,175
2018-10-01T20:02:24.017Z,180
2018-10-01T20:02:36.566Z,190
2018-10-01T20:02:49.819Z,195
2018-10-01T20:03:03.482Z,200
2018-10-01T20:03:16.497Z,195
2018-10-01T20:03:29.043Z,190
2018-10-01T20:03:41.707Z,180
2018-10-01T20:03:54.256Z,185
2018-10-01T20:04:06.795Z,195
2018-10-01T20:04:19.342Z,200
2018-10-01T20:04:31.969Z,200
2018-10-01T20:04:45.113Z,200
2018-10-01T20:04:58.612Z,200
2018-10-01T20:05:11.533Z,200
2018-10-01T20:05:24.491Z,200
2018-10-01T20:05:36.665Z,200
2018-10-01T20:05:49.726Z,200
2018-10-01T20:06:01.769Z,200
2018-10-01T20:06:13.417Z,200
2018-10-01T20:06:25.568Z,200
2018-10-01T20:06:38.057Z,200
2018-10-01T20:06:49.631Z,200
2018-10-01T20:07:02.715Z,200
2018-10-01T20:07:15.698Z,200
2018-10-01T20:07:28.195Z,200
2018-10-01T20:07:41.208Z,200
2018-10-01T20:07:54.236Z,200
2018-10-01T20:08:06.786Z,200
2018-10-01T20:08:19.415Z,200
2018-10-01T20:08:31.019Z,200
2018-10-01T20:08:43.605Z,200
2018-10-01T20:08:56.407Z,200
2018-10-01T20:09:09.331Z,200
2018-10-01T20:09:22.238Z,200
2018-10-01T20:09:34.893Z,200
2018-10-01T20:09:47.947Z,200
2018-10-01T20:10:00.538Z,200
2018-10-01T20:10:13.991Z,205
2018-10-01T20:10:27.159Z,200
2018-10-01T20:10:40.187Z,200
2018-10-01T20:10:53.563Z,200
2018-10-01T20:11:06.387Z,200
2018-10-01T20:11:18.607Z,200
2018-10-01T20:11:31.974Z,200
2018-10-01T20:11:45.097Z,200
2018-10-01T20:11:58.162Z,200
2018-10-01T20:12:10.711Z,200
2018-10-01T20:12:23.338Z,200
2018-10-01T20:12:35.921Z,200
2018-10-01T20:12:47.998Z,200
2018-10-01T20:13:00.504Z,200
2018-10-01T20:13:13.556Z,200
2018-10-01T20:13:26.584Z,195
2018-10-01T20:13:39.134Z,195
2018-10-01T20:13:52.161Z,195
2018-10-01T20:14:04.722Z,195
2018-10-01T20:14:17.752Z,195
2018-10-01T20:14:28.878Z,195
2018-10-01T20:14:41.908Z,195
2018-10-01T20:14:54.152Z,195
2018-10-01T20:15:07.625Z,195
2018-10-01T20:15:20.991Z,190
2018-10-01T20:15:33.797Z,190
2018-10-01T20:15:46.922Z,190
2018-10-01T20:15:59.645Z,195
2018-10-01T20:16:11.880Z,190
2018-10-01T20:16:24.353Z,190
2018-10-01T20:16:36.876Z,185
2018-10-01T20:16:50.046Z,190
2018-10-01T20:17:03.724Z,190
2018-10-01T20:17:16.789Z,190
2018-10-01T20:17:30.522Z,190
2018-10-01T20:17:43.583Z,190
2018-10-01T20:17:56.989Z,185
2018-10-01T20:18:10.333Z,185
2018-10-01T20:18:22.877Z,185
2018-10-01T20:18:36.228Z,185
2018-10-01T20:18:49.218Z,185
2018-10-01T20:19:02.663Z,180
2018-10-01T20:19:15.052Z,180
2018-10-01T20:19:27.509Z,180
2018-10-01T20:19:40.500Z,180
2018-10-01T20:19:53.908Z,180
2018-10-01T20:20:06.329Z,175
2018-10-01T20:20:18.837Z,175
2018-10-01T20:20:32.427Z,175
2018-10-01T20:20:45.713Z,175
2018-10-01T20:20:59.540Z,175
2018-10-01T20:21:12.727Z,170
2018-10-01T20:21:26.591Z,170
2018-10-01T20:21:38.622Z,170
2018-10-01T20:21:51.425Z,170
2018-10-01T20:22:05.326Z,165
2018-10-01T20:22:18.588Z,165
2018-10-01T20:22:32.390Z,165
2018-10-01T20:22:45.770Z,165
2018-10-01T20:22:58.769Z,165
2018-10-01T20:23:12.198Z,160
2018-10-01T20:23:25.171Z,160
2018-10-01T20:23:38.368Z,160
2018-10-01T20:23:51.134Z,160
2018-10-01T20:24:04.455Z,155
2018-10-01T20:24:18.263Z,155
2018-10-01T20:24:31.316Z,155
2018-10-01T20:24:45.041Z,155
2018-10-01T20:24:58.656Z,150
2018-10-01T20:25:11.629Z,150
2018-10-01T20:25:24.619Z,150
2018-10-01T20:25:37.201Z,150
2018-10-01T20:25:50.618Z,145
2018-10-01T20:26:04.727Z,145
2018-10-01T20:26:18.055Z,145
2018-10-01T20:26:30.635Z,145
2018-10-01T20:26:45.199Z,140
2018-10-01T20:26:57.932Z,140
2018-10-01T20:27:11.010Z,140
2018-10-01T20:27:25.080Z,140
2018-10-01T20:27:37.693Z,140
2018-10-01T20:27:51.259Z,135
2018-10-01T20:28:04.384Z,135
2018-10-01T20:28:18.170Z,135
2018-10-01T20:28:33.489Z,135
2018-10-01T20:28:47.218Z,135
2018-10-01T20:29:02.959Z,135
2018-10-01T20:29:18.553Z,135
2018-10-01T20:29:31.408Z,130
2018-10-01T20:29:44.074Z,130
2018-10-01T20:29:58.357Z,130
2018-10-01T20:30:11.703Z,130
2018-10-01T20:30:25.742Z,130
2018-10-01T20:30:38.370Z,125
2018-10-01T20:30:52.218Z,125
2018-10-01T20:31:05.104Z,125
2018-10-01T20:31:18.474Z,125
2018-10-01T20:31:31.768Z,125
2018-10-01T20:31:45.330Z,120
2018-10-01T20:31:58.668Z,120
2018-10-01T20:32:12.116Z,120
2018-10-01T20:32:25.537Z,120
2018-10-01T20:32:38.629Z,120
2018-10-01T20:32:51.031Z,115
2018-10-01T20:33:04.425Z,115
2018-10-01T20:33:17.808Z,115
2018-10-01T20:33:31.455Z,115
2018-10-01T20:33:44.741Z,115
2018-10-01T20:33:58.154Z,110
2018-10-01T20:34:11.189Z,110
2018-10-01T20:34:24.431Z,110
2018-10-01T20:34:37.413Z,110
2018-10-01T20:34:50.631Z,110
2018-10-01T20:35:04.880Z,105
2018-10-01T20:35:19.168Z,105
2018-10-01T20:35:32.898Z,105
2018-10-01T20:35:46.716Z,105
2018-10-01T20:36:00.962Z,105
2018-10-01T20:36:14.995Z,100
2018-10-01T20:36:28.864Z,100
2018-10-01T20:36:42.111Z,100
2018-10-01T20:36:55.045Z,100
2018-10-01T20:37:07.540Z,105
2018-10-01T20:37:20.452Z,100
2018-10-01T20:37:32.781Z,95
2018-10-01T20:37:45.918Z,95
2018-10-01T20:37:59.696Z,95
2018-10-01T20:38:12.920Z,95
2018-10-01T20:38:26.866Z,90
2018-10-01T20:38:40.378Z,90
2018-10-01T20:38:53.428Z,90
2018-10-01T20:39:06.912Z,90
2018-10-01T20:39:19.877Z,90
2018-10-01T20:39:32.769Z,85
2018-10-01T20:39:45.734Z,85
2018-10-01T20:39:59.125Z,85
2018-10-01T20:40:12.187Z,85
2018-10-01T20:40:24.612Z,80
2018-10-01T20:40:37.879Z,80
2018-10-01T20:40:50.548Z,80
2018-10-01T20:41:04.534Z,80
2018-10-01T20:41:17.723Z,80
2018-10-01T20:41:31.558Z,80
2018-10-01T20:41:44.965Z,75
2018-10-01T20:41:58.629Z,75
2018-10-01T20:42:12.305Z,75
2018-10-01T20:42:26.124Z,75
2018-10-01T20:42:39.214Z,75
2018-10-01T20:42:52.629Z,80
2018-10-01T20:43:05.477Z,75
2018-10-01T20:43:18.408Z,70
2018-10-01T20:43:29.928Z,70
2018-10-01T20:43:43.365Z,70
2018-10-01T20:43:56.614Z,70
2018-10-01T20:44:10.578Z,70
2018-10-01T20:44:23.917Z,70
2018-10-01T20:44:37.523Z,65
2018-10-01T20:44:50.942Z,65
2018-10-01T20:45:03.964Z,65
2018-10-01T20:45:17.241Z,65
2018-10-01T20:45:29.621Z,65
2018-10-01T20:45:42.608Z,65
2018-10-01T20:45:56.344Z,65
2018-10-01T20:46:09.583Z,65
2018-10-01T20:46:22.453Z,65
2018-10-01T20:46:35.784Z,65
2018-10-01T20:46:49.570Z,65
2018-10-01T20:47:03.484Z,60
2018-10-01T20:47:16.082Z,60
2018-10-01T20:47:30.055Z,60
2018-10-01T20:47:42.988Z,60
2018-10-01T20:47:55.501Z,60
2018-10-01T20:48:08.773Z,60
2018-10-01T20:48:21.400Z,60
2018-10-01T20:48:34.525Z,60
2018-10-01T20:48:47.902Z,55
2018-10-01T20:49:00.702Z,55
2018-10-01T20:49:13.157Z,55
2018-10-01T20:49:26.635Z,55
2018-10-01T20:49:40.035Z,55
2018-10-01T20:49:52.914Z,55
2018-10-01T20:50:07.045Z,55
2018-10-01T20:50:20.172Z,50
2018-10-01T20:50:33.603Z,50
2018-10-01T20:50:46.103Z,50
2018-10-01T20:50:59.571Z,50
2018-10-01T20:51:11.966Z,50
2018-10-01T20:51:25.208Z,50
2018-10-01T20:51:38.266Z,50
2018-10-01T20:51:51.079Z,50
2018-10-01T20:52:03.838Z,50
2018-10-01T20:52:17.481Z,45
2018-10-01T20:52:31.716Z,45
2018-10-01T20:52:45.233Z,45
2018-10-01T20:52:58.904Z,45
2018-10-01T20:53:13.312Z,45
2018-10-01T20:53:27.628Z,45
2018-10-01T20:53:41.143Z,45
2018-10-01T20:53:54.936Z,40
2018-10-01T20:54:07.914Z,40
2018-10-01T20:54:21.224Z,40
2018-10-01T20:54:34.725Z,40
2018-10-01T20:54:48.207Z,40
2018-10-01T20:55:01.040Z,40
2018-10-01T20:55:14.101Z,40
2018-10-01T20:55:27.683Z,35
2018-10-01T20:55:40.955Z,35
2018-10-01T20:55:54.263Z,35
2018-10-01T20:56:08.268Z,35
2018-10-01T20:56:22.027Z,35
2018-10-01T20:56:35.655Z,35
2018-10-01T20:56:48.545Z,30
2018-10-01T20:57:01.821Z,30
2018-10-01T20:57:14.818Z,30
2018-10-01T20:57:28.279Z,30
2018-10-01T20:57:40.619Z,30
2018-10-01T20:57:53.106Z,30
2018-10-01T20:58:05.469Z,30
2018-10-01T20:58:17.993Z,30
2018-10-01T20:58:31.117Z,25
2018-10-01T20:58:44.372Z,25
2018-10-01T20:58:57.461Z,25
2018-10-01T20:59:10.707Z,25
2018-10-01T20:59:24.123Z,25
2018-10-01T20:59:37.674Z,25
2018-10-01T20:59:50.698Z,25
2018-10-01T21:00:04.045Z,25
2018-10-01T21:00:16.396Z,25
2018-10-01T21:00:29.839Z,20
2018-10-01T21:00:42.615Z,20
2018-10-01T21:00:56.137Z,20
2018-10-01T21:01:09.068Z,20
2018-10-01T21:01:22.082Z,20
2018-10-01T21:01:35.109Z,20
2018-10-01T21:01:48.421Z,20
2018-10-01T21:02:01.081Z,20
2018-10-01T21:02:13.884Z,20
2018-10-01T21:02:27.692Z,15
2018-10-01T21:02:41.470Z,15
2018-10-01T21:02:54.403Z,15
2018-10-01T21:03:07.261Z,15
2018-10-01T21:03:20.017Z,15
2018-10-01T21:03:32.947Z,15
2018-10-01T21:03:46.214Z,15
2018-10-01T21:03:59.222Z,15
2018-10-01T21:04:12.162Z,15
2018-10-01T21:04:25.534Z,15
2018-10-01T21:04:37.925Z,10
2018-10-01T21:04:51.131Z,10
2018-10-01T21:05:04.559Z,10
2018-10-01T21:05:16.512Z,10
2018-10-01T21:05:29.848Z,10
2018-10-01T21:05:43.187Z,10
2018-10-01T21:05:55.643Z,10
2018-10-01T21:06:08.082Z,10
2018-10-01T21:06:21.358Z,10
2018-10-01T21:06:34.570Z,10
2018-10-01T21:06:48.048Z,10
2018-10-01T21:07:01.525Z,10
2018-10-01T21:07:14.436Z,10
2018-10-01T21:07:27.866Z,10
2018-10-01T21:07:41.358Z,5
2018-10-01T21:07:54.843Z,5
2018-10-01T21:08:07.876Z,5
2018-10-01T21:08:21.510Z,5
2018-10-01T21:08:34.783Z,5
2018-10-01T21:08:47.627Z,5
2018-10-01T21:09:00.465Z,5
2018-10-01T21:09:13.226Z,5
2018-10-01T21:09:26.083Z,5
2018-10-01T21:09:39.527Z,5
2018-10-01T21:09:52.548Z,5
2018-10-01T21:10:05.460Z,5
2018-10-01T21:10:18.785Z,5
2018-10-01T21:10:31.836Z,5
2018-10-01T21:10:44.864Z,5
2018-10-01T21:10:58.383Z,5
2018-10-01T21:11:11.456Z,5
2018-10-01T21:11:24.021Z,5
2018-10-01T21:11:36.376Z,5
2018-10-01T21:11:49.758Z,5
2018-10-01T21:12:02.795Z,5
2018-10-01T21:12:16.475Z,0
2018-10-01T21:12:29.874Z,0
2018-10-01T21:12:43.188Z,0
2018-10-01T21:12:56.339Z,0
2018-10-01T21:13:09.522Z,0
2018-10-01T21:13:23.093Z,0
2018-10-01T21:13:36.532Z,0
2018-10-01T21:13:49.608Z,0
2018-10-01T21:14:02.948Z,0
2018-10-01T21:14:16.236Z,0
2018-10-01T21:14:27.943Z,0
2018-10-01T21:14:41.337Z,0
2018-10-01T21:14:53.874Z,0
2018-10-01T21:15:07.276Z,0
2018-10-01T21:15:20.781Z,0
2018-10-01T21:15:33.272Z,0
2018-10-01T21:15:46.813Z,0
2018-10-01T21:15:59.579Z,0
2018-10-01T21:16:12.483Z,0
2018-10-01T21:16:25.306Z,0
2018-10-01T21:16:38.638Z,0
2018-10-01T21:16:51.914Z,0
2018-10-01T21:17:04.843Z,0
2018-10-01T21:17:17.639Z,0
2018-10-01T21:17:31.055Z,0
2018-10-01T21:17:43.420Z,0
2018-10-01T21:17:56.817Z,0
2018-10-01T21:18:09.258Z,0
2018-10-01T21:18:22.063Z,0
2018-10-01T21:18:34.972Z,0
2018-10-01T21:18:48.381Z,0
2018-10-01T21:19:01.722Z,0
2018-10-01T21:19:14.671Z,0
2018-10-01T21:19:27.649Z,0
2018-10-01T21:19:41.064Z,0
2018-10-01T21:19:54.518Z,0
2018-10-01T21:20:07.577Z,0
2018-10-01T21:20:21.068Z,0
2018-10-01T21:20:34.543Z,0
2018-10-01T21:20:47.928Z,0
2018-10-01T21:21:01.377Z,0
2018-10-01T21:21:13.762Z,0
2018-10-01T21:21:27.273Z,0
2018-10-01T21:21:40.591Z,0
2018-10-01T21:21:53.561Z,0
2018-10-01T21:22:06.947Z,0
2018-10-01T21:22:20.262Z,0
2018-10-01T21:22:33.985Z,0
2018-10-01T21:22:46.501Z,0
2018-10-01T21:22:59.810Z,0
2018-10-01T21:23:12.859Z,0
2018-10-01T21:23:25.580Z,0
2018-10-01T21:23:38.913Z,0
2018-10-01T21:23:52.274Z,0
2018-10-01T21:24:05.006Z,0
2018-10-01T21:24:18.440Z,0
2018-10-01T21:24:31.535Z,0
2018-10-01T21:24:45.165Z,0
2018-10-01T21:24:58.575Z,0
2018-10-01T21:25:11.960Z,0
2018-10-01T21:25:24.332Z,0
2018-10-01T21:25:37.643Z,0
2018-10-01T21:25:51.054Z,0
2018-10-01T21:26:03.069Z,0
2018-10-01T21:26:16.370Z,0
2018-10-01T21:26:29.813Z,0
2018-10-01T21:26:42.973Z,0
2018-10-01T21:26:55.783Z,0
2018-10-01T21:27:09.143Z,0
2018-10-01T21:27:22.732Z,0
2018-10-01T21:27:36.173Z,0
2018-10-01T21:27:49.391Z,0
2018-10-01T21:28:02.681Z,0
2018-10-01T21:28:15.082Z,0
2018-10-01T21:28:28.413Z,0
2018-10-01T21:28:41.800Z,0
2018-10-01T21:28:55.132Z,0
2018-10-01T21:29:08.256Z,0
2018-10-01T21:29:21.535Z,0
2018-10-01T21:29:33.975Z,0
2018-10-01T21:29:46.575Z,0
2018-10-01T21:30:00.124Z,0
2018-10-01T21:30:12.562Z,0
2018-10-01T21:30:25.475Z,0
2018-10-01T21:30:38.464Z,0
2018-10-01T21:30:50.994Z,0
2018-10-01T21:31:03.819Z,0
2018-10-01T21:31:16.270Z,0
2018-10-01T21:31:29.457Z,0
2018-10-01T21:31:42.425Z,0
2018-10-01T21:31:55.801Z,0
2018-10-01T21:32:09.012Z,0
2018-10-01T21:32:21.729Z,0
2018-10-01T21:32:35.187Z,0
2018-10-01T21:32:48.553Z,0
2018-10-01T21:33:01.114Z,0
2018-10-01T21:33:13.980Z,0
2018-10-01T21:33:26.817Z,0
2018-10-01T21:33:39.357Z,0
2018-10-01T21:33:52.756Z,0
2018-10-01T21:34:05.547Z,0
2018-10-01T21:34:19.554Z,0
2018-10-01T21:34:32.965Z,0
2018-10-01T21:34:45.791Z,0
2018-10-01T21:34:59.154Z,0
2018-10-01T21:35:11.892Z,0
2018-10-01T21:35:23.741Z,0
2018-10-01T21:35:37.092Z,0
2018-10-01T21:35:50.099Z,0
2018-10-01T21:36:02.974Z,0
2018-10-01T21:36:15.869Z,0
2018-10-01T21:36:28.861Z,0
2018-10-01T21:36:41.830Z,0
2018-10-01T21:36:55.300Z,0
2018-10-01T21:37:07.785Z,0
2018-10-01T21:37:20.776Z,0
2018-10-01T21:37:34.144Z,0
2018-10-01T21:37:46.998Z,0
2018-10-01T21:38:00.479Z,0
2018-10-01T21:38:12.765Z,0
2018-10-01T21:38:26.088Z,0
2018-10-01T21:38:39.416Z,0
2018-10-01T21:38:52.735Z,0
2018-10-01T21:39:05.325Z,0
2018-10-01T21:39:18.785Z,0
2018-10-01T21:39:30.651Z,0
2018-10-01T21:39:43.193Z,0
2018-10-01T21:39:56.737Z,0
2018-10-01T21:40:09.762Z,0
2018-10-01T21:40:22.658Z,0
2018-10-01T21:40:35.539Z,0
2018-10-01T21:40:48.470Z,0
2018-10-01T21:41:01.970Z,0
2018-10-01T21:41:15.791Z,0
2018-10-01T21:41:28.830Z,0
2018-10-01T21:41:41.750Z,0
2018-10-01T21:41:54.780Z,0
2018-10-01T21:42:07.717Z,0
2018-10-01T21:42:20.278Z,0
2018-10-01T21:42:33.592Z,0
2018-10-01T21:42:47.035Z,0
2018-10-01T21:42:59.934Z,0
2018-10-01T21:43:12.823Z,0
2018-10-01T21:43:25.695Z,0
2018-10-01T21:43:38.975Z,0
2018-10-01T21:43:52.267Z,0
2018-10-01T21:44:05.217Z,0